الصفحة الرئيسية
METAR-TAF:

METAR-TAF

مطار :

Chinandega, نيكاراغوا

دائرة عرض: 12-38N, خط طول: 087-08W, ارتفاع: 53 متر

مراقبة الطقس الحالي

تاريخ ووقت الإصدار 1ساعة و 6 دقيقة قبل الساعة 18:00UTC
ريح 6 عقدة من الشرق
درجة الحرارة 34°درجة مئوية
الرطوبة 47%
ضغط 1011 hPa
الرؤية 10 كم أو أكثر
غيوم قليلة على ارتفاع 2500 قدم
غيوم متفرقة على ارتفاع 30000 قدم

METAR: MNCH 141800Z 08006KT 9999 FEW025 SCT300 34/21 Q1011

زمن: 13:06 (19:06 UTC)


TAF: مفقودة

أرصاد الطقس والتوقعات من أكثر من 4000 مطار (تقارير الطقس للمطار METAR والتنبؤ بالطقس بالمطارTAF).

المحطات المتاحة هي النقط الصفراء والحمراء على الخريطة.

حرك المؤشر فوق النقطة لمعرفة اسم المحطة.

ثم انقر لمعرفة أرصاد وتوقعات الطقس.

لتغيير الخارطة: اضغط على الأزرار الخضراء مع رمز الصليب الأسود للتكبير. على الزر الأخضر مع شرطة للتصغير، أو على الأسهم الخضراء للخرائط المجاورة.


METAR-TAF: